Time;durP1;ratioP1;P1;durP2;ratioP2;P2;SDS_P1;SDS_P2;PMS_P1;PMS_P2;Temp;Humidity;BMP_temperature;BMP_pressure;BME280_temperature;BME280_humidity;BME280_pressure;Samples;Min_cycle;Max_cycle;Signal;HPM_P1;HPM_P2
2022/03/17 00:00:19;;;;;;;21.97;11.40;;;-1.50;99.90;;;;;;5052275;28;20209;-71
2022/03/17 00:02:47;;;;;;;24.03;12.03;;;-1.50;99.90;;;;;;5052202;28;20209;-70
2022/03/17 00:05:14;;;;;;;22.13;11.40;;;-1.50;99.90;;;;;;5052364;28;20221;-70
2022/03/17 00:07:43;;;;;;;22.30;11.13;;;-1.50;99.90;;;;;;5052232;28;20205;-70
2022/03/17 00:10:14;;;;;;;21.57;11.13;;;-1.50;99.90;;;;;;5052606;28;20210;-65
2022/03/17 00:12:42;;;;;;;20.40;10.77;;;-1.50;99.90;;;;;;5052163;28;20197;-64
2022/03/17 00:15:11;;;;;;;19.57;10.50;;;-1.50;99.90;;;;;;5052350;28;20255;-64
2022/03/17 00:17:40;;;;;;;18.53;10.13;;;-1.50;99.90;;;;;;5052203;28;20209;-65
2022/03/17 00:20:10;;;;;;;19.13;10.10;;;-1.40;99.90;;;;;;5052201;28;20655;-66
2022/03/17 00:22:38;;;;;;;24.07;11.63;;;-1.50;99.90;;;;;;5052179;28;20310;-65
2022/03/17 00:25:06;;;;;;;21.67;11.40;;;-1.50;99.90;;;;;;5051798;28;20690;-65
2022/03/17 00:27:34;;;;;;;22.20;11.40;;;-1.50;99.90;;;;;;5052446;28;20544;-66
2022/03/17 00:30:01;;;;;;;22.57;12.07;;;-1.50;99.90;;;;;;5052125;28;20565;-66
2022/03/17 00:32:30;;;;;;;26.87;13.03;;;-1.60;99.90;;;;;;5051433;28;20206;-65
2022/03/17 00:37:41;;;;;;;27.07;12.30;;;-1.70;99.90;;;;;;5051509;28;20189;-66
2022/03/17 00:40:09;;;;;;;22.47;11.67;;;-1.70;99.90;;;;;;5051694;28;20205;-64
2022/03/17 00:42:37;;;;;;;26.33;12.90;;;-1.80;99.90;;;;;;5051633;28;20209;-64
2022/03/17 00:45:04;;;;;;;33.63;15.97;;;-1.80;99.90;;;;;;5051999;28;20699;-66
2022/03/17 00:47:33;;;;;;;34.40;16.13;;;-1.80;99.90;;;;;;5051739;28;20212;-66
2022/03/17 00:50:00;;;;;;;37.20;16.33;;;-1.90;99.90;;;;;;5051395;28;20206;-65
2022/03/17 00:52:27;;;;;;;37.53;18.03;;;-1.90;99.90;;;;;;5051685;28;20209;-65
2022/03/17 00:54:54;;;;;;;38.87;17.97;;;-1.90;99.90;;;;;;5051499;28;20195;-65
2022/03/17 00:57:21;;;;;;;43.53;19.63;;;-2.00;99.90;;;;;;5051610;28;20208;-65
2022/03/17 00:59:49;;;;;;;38.50;18.03;;;-2.00;99.90;;;;;;5051668;28;20205;-65
2022/03/17 01:02:16;;;;;;;38.73;17.00;;;-2.00;99.90;;;;;;5051430;28;20213;-65
2022/03/17 01:04:45;;;;;;;38.40;16.93;;;-2.00;99.90;;;;;;5051566;28;20604;-67
2022/03/17 01:07:12;;;;;;;36.37;17.30;;;-2.00;99.90;;;;;;5051530;28;20220;-66
2022/03/17 01:09:39;;;;;;;33.60;16.67;;;-2.00;99.90;;;;;;5051490;28;20209;-65
2022/03/17 01:12:07;;;;;;;35.90;16.70;;;-2.00;99.90;;;;;;5051705;28;20201;-65
2022/03/17 01:14:34;;;;;;;37.23;16.63;;;-2.00;99.90;;;;;;5051410;28;20212;-65
2022/03/17 01:17:01;;;;;;;33.80;16.63;;;-2.00;99.90;;;;;;5051347;28;20201;-64
2022/03/17 01:19:28;;;;;;;35.20;15.43;;;-2.00;99.90;;;;;;5051432;28;20209;-65
2022/03/17 01:21:57;;;;;;;33.67;15.17;;;-2.00;99.90;;;;;;5051107;28;20247;-66
2022/03/17 01:24:24;;;;;;;34.53;15.03;;;-2.00;99.90;;;;;;5051267;28;20205;-65
2022/03/17 01:26:51;;;;;;;33.50;14.57;;;-2.00;99.90;;;;;;5051222;28;20232;-65
2022/03/17 01:29:19;;;;;;;31.93;15.13;;;-2.10;99.90;;;;;;5051531;28;20209;-65
2022/03/17 01:31:47;;;;;;;34.10;15.57;;;-2.10;99.90;;;;;;5051231;28;20259;-65
2022/03/17 01:34:14;;;;;;;35.10;15.20;;;-2.20;99.90;;;;;;5051384;28;20205;-66
2022/03/17 01:36:41;;;;;;;33.23;15.60;;;-2.20;99.90;;;;;;5051356;28;20456;-66
2022/03/17 01:39:09;;;;;;;33.23;15.03;;;-2.20;99.90;;;;;;5051212;28;20711;-66
2022/03/17 01:41:38;;;;;;;32.53;15.73;;;-2.20;99.90;;;;;;5050891;28;20202;-65
2022/03/17 01:44:06;;;;;;;30.23;15.00;;;-2.20;99.90;;;;;;5053157;28;20206;-64
2022/03/17 01:47:26;;;;;;;31.60;14.60;;;-2.20;99.90;;;;;;5054697;28;20229;-65
2022/03/17 01:49:20;;;;;;;32.23;14.70;;;-2.20;99.90;;;;;;5054629;28;20289;-66
2022/03/17 01:51:49;;;;;;;29.23;14.57;;;-2.20;99.90;;;;;;5054770;28;20664;-65
2022/03/17 01:54:19;;;;;;;34.47;15.23;;;-2.20;99.90;;;;;;5054710;28;20216;-64
2022/03/17 01:56:47;;;;;;;30.50;14.27;;;-2.20;99.90;;;;;;5054471;28;20208;-66
2022/03/17 01:59:15;;;;;;;24.53;12.80;;;-2.30;99.90;;;;;;5054953;28;20205;-65
2022/03/17 02:01:43;;;;;;;27.27;13.57;;;-2.30;99.90;;;;;;5054281;28;20259;-66
2022/03/17 02:04:10;;;;;;;27.40;12.93;;;-2.30;99.90;;;;;;5054510;28;20213;-66
2022/03/17 02:06:37;;;;;;;23.13;11.33;;;-2.30;99.90;;;;;;5054151;28;20225;-65
2022/03/17 02:09:04;;;;;;;23.83;11.50;;;-2.30;99.90;;;;;;5054658;28;20209;-68
2022/03/17 02:14:22;;;;;;;23.17;11.37;;;-2.40;99.90;;;;;;5054456;28;20188;-68
2022/03/17 02:16:50;;;;;;;21.03;10.77;;;-2.50;99.90;;;;;;5054108;28;20193;-69
2022/03/17 02:19:17;;;;;;;20.30;10.23;;;-2.50;99.90;;;;;;5054398;28;20655;-68
2022/03/17 02:21:45;;;;;;;20.20;10.47;;;-2.50;99.90;;;;;;5053960;28;20233;-69
2022/03/17 02:26:59;;;;;;;18.00;9.87;;;-2.60;99.90;;;;;;5054278;28;20224;-69
2022/03/17 02:29:26;;;;;;;20.43;10.20;;;-2.60;99.90;;;;;;5053842;28;20205;-68
2022/03/17 02:31:53;;;;;;;18.43;10.00;;;-2.60;99.90;;;;;;5054208;28;20577;-68
2022/03/17 02:34:20;;;;;;;19.90;10.10;;;-2.60;99.90;;;;;;5054033;28;20209;-68
2022/03/17 02:36:48;;;;;;;21.70;10.00;;;-2.60;99.90;;;;;;5054103;28;20636;-69
2022/03/17 02:39:18;;;;;;;18.73;10.10;;;-2.60;99.90;;;;;;5053777;28;20638;-69
2022/03/17 02:41:45;;;;;;;22.33;10.47;;;-2.60;99.90;;;;;;5053538;28;20208;-68
2022/03/17 02:44:13;;;;;;;19.30;9.97;;;-2.60;99.90;;;;;;5053975;28;20652;-68
2022/03/17 02:46:40;;;;;;;21.63;11.20;;;-2.60;99.90;;;;;;5053406;28;20229;-68
2022/03/17 02:49:07;;;;;;;22.37;10.60;;;-2.60;99.90;;;;;;5053533;28;20209;-68
2022/03/17 02:51:34;;;;;;;25.80;11.77;;;-2.60;99.90;;;;;;5053661;28;20205;-68
2022/03/17 02:54:01;;;;;;;27.30;12.47;;;-2.60;99.90;;;;;;5053712;28;20555;-68
2022/03/17 02:56:30;;;;;;;24.47;11.53;;;-2.60;99.90;;;;;;5053305;28;20209;-68
2022/03/17 02:58:57;;;;;;;28.00;13.10;;;-2.60;99.90;;;;;;5053638;28;20217;-68
2022/03/17 03:01:24;;;;;;;28.30;12.73;;;-2.60;99.90;;;;;;5053235;28;20225;-68
2022/03/17 03:03:51;;;;;;;26.13;12.80;;;-2.60;99.90;;;;;;5053512;28;20216;-68
2022/03/17 03:06:18;;;;;;;29.07;12.67;;;-2.60;99.90;;;;;;5053473;28;20236;-69
2022/03/17 03:08:45;;;;;;;28.80;13.43;;;-2.60;99.90;;;;;;5053594;28;20212;-68
2022/03/17 03:11:13;;;;;;;27.00;12.87;;;-2.70;99.90;;;;;;5053190;28;20209;-67
2022/03/17 03:13:43;;;;;;;28.77;14.20;;;-2.80;99.90;;;;;;5053387;28;20205;-68
2022/03/17 03:16:11;;;;;;;29.43;13.80;;;-2.80;99.90;;;;;;5053525;28;20295;-68
2022/03/17 03:18:39;;;;;;;29.80;14.00;;;-2.80;99.90;;;;;;5053168;28;20256;-68
2022/03/17 03:21:06;;;;;;;37.73;15.10;;;-2.80;99.90;;;;;;5052988;28;20221;-68
2022/03/17 03:23:33;;;;;;;34.57;15.70;;;-2.80;99.90;;;;;;5052792;28;20202;-68
2022/03/17 03:26:01;;;;;;;31.50;14.10;;;-2.80;99.90;;;;;;5053281;28;20597;-68
2022/03/17 03:28:31;;;;;;;33.10;13.00;;;-2.80;99.90;;;;;;5052710;28;20292;-69
2022/03/17 03:30:59;;;;;;;27.33;13.27;;;-2.80;99.90;;;;;;5051602;28;20202;-68
2022/03/17 03:33:26;;;;;;;26.17;11.97;;;-2.90;99.90;;;;;;5052975;28;20671;-67
2022/03/17 03:38:38;;;;;;;17.20;9.70;;;-3.00;99.90;;;;;;5052531;28;20248;-67
2022/03/17 03:41:05;;;;;;;21.80;10.80;;;-3.10;99.90;;;;;;5052622;28;20213;-67
2022/03/17 03:43:32;;;;;;;19.97;10.33;;;-3.00;99.90;;;;;;5052477;28;20209;-67
2022/03/17 03:46:01;;;;;;;18.07;8.97;;;-3.00;99.90;;;;;;5052766;28;20253;-67
2022/03/17 03:48:28;;;;;;;21.30;9.30;;;-3.10;99.90;;;;;;5052689;28;20573;-66
2022/03/17 03:50:55;;;;;;;15.77;9.17;;;-3.20;99.90;;;;;;5052578;28;20213;-67
2022/03/17 03:53:22;;;;;;;16.43;8.63;;;-3.20;99.90;;;;;;5052286;28;20202;-67
2022/03/17 03:55:49;;;;;;;17.40;8.17;;;-3.30;99.90;;;;;;5052497;28;20201;-67
2022/03/17 03:58:17;;;;;;;14.57;8.20;;;-3.30;99.90;;;;;;5052310;28;20209;-66
2022/03/17 04:00:44;;;;;;;13.40;7.83;;;-3.30;99.90;;;;;;5052239;28;20251;-67
2022/03/17 04:03:12;;;;;;;15.80;8.10;;;-3.40;99.90;;;;;;5052110;28;20205;-68
2022/03/17 04:05:40;;;;;;;13.73;7.73;;;-3.40;99.90;;;;;;5052385;28;20209;-67
2022/03/17 04:08:07;;;;;;;13.13;7.47;;;-3.50;99.90;;;;;;5051476;28;20231;-68
2022/03/17 04:10:34;;;;;;;12.37;7.40;;;-3.40;99.90;;;;;;5052319;28;20205;-66
2022/03/17 04:13:01;;;;;;;14.23;7.23;;;-3.40;99.90;;;;;;5052097;28;20205;-67
2022/03/17 04:15:28;;;;;;;14.00;8.23;;;-3.40;99.90;;;;;;5052237;28;20681;-67
2022/03/17 04:17:55;;;;;;;11.73;7.30;;;-3.40;99.90;;;;;;5052130;28;20201;-67
2022/03/17 04:20:24;;;;;;;13.13;7.03;;;-3.40;99.90;;;;;;5052054;28;20729;-67
2022/03/17 04:22:51;;;;;;;13.63;8.00;;;-3.40;99.90;;;;;;5052252;28;20681;-66
2022/03/17 04:25:18;;;;;;;17.23;8.50;;;-3.40;99.90;;;;;;5051827;28;20263;-66
2022/03/17 04:27:45;;;;;;;17.20;9.00;;;-3.30;99.90;;;;;;5051758;28;20225;-66
2022/03/17 04:30:13;;;;;;;20.30;9.93;;;-3.30;99.90;;;;;;5051880;28;20211;-67
2022/03/17 04:32:40;;;;;;;20.17;10.47;;;-3.30;99.90;;;;;;5052107;28;20213;-67
2022/03/17 04:35:08;;;;;;;19.23;10.30;;;-3.20;99.90;;;;;;5051572;28;20214;-67
2022/03/17 04:37:37;;;;;;;22.13;11.07;;;-3.30;99.90;;;;;;5051688;28;20201;-67
2022/03/17 04:40:05;;;;;;;21.97;10.37;;;-3.20;99.90;;;;;;5051597;28;20257;-67
2022/03/17 04:42:32;;;;;;;23.70;11.00;;;-3.20;99.90;;;;;;5051928;28;20208;-68
2022/03/17 04:44:59;;;;;;;23.00;12.00;;;-3.10;99.90;;;;;;5051867;28;20213;-66
2022/03/17 04:47:27;;;;;;;20.20;11.83;;;-3.20;99.90;;;;;;5051420;28;20235;-67
2022/03/17 04:49:54;;;;;;;22.30;12.10;;;-3.20;99.90;;;;;;5051888;28;20619;-67
2022/03/17 04:55:15;;;;;;;23.53;12.90;;;-3.20;99.90;;;;;;5015470;28;20208;-67
2022/03/17 04:57:42;;;;;;;23.60;13.03;;;-3.10;99.90;;;;;;5051498;28;20217;-66
2022/03/17 05:00:11;;;;;;;22.03;12.80;;;-3.10;99.90;;;;;;5051431;28;20209;-67
2022/03/17 05:02:38;;;;;;;26.07;14.00;;;-3.00;99.90;;;;;;5051663;28;20209;-67
2022/03/17 05:05:06;;;;;;;26.43;14.27;;;-3.00;99.90;;;;;;5051219;28;20224;-67
2022/03/17 05:07:34;;;;;;;26.03;13.63;;;-3.00;99.90;;;;;;5051658;28;20232;-68
2022/03/17 05:10:01;;;;;;;30.13;15.33;;;-3.00;99.90;;;;;;5051277;28;20206;-67
2022/03/17 05:12:30;;;;;;;28.93;15.50;;;-3.00;99.90;;;;;;5051484;28;20216;-66
2022/03/17 05:14:57;;;;;;;24.70;14.40;;;-3.00;99.90;;;;;;5051267;28;20210;-67
2022/03/17 05:17:24;;;;;;;30.07;15.40;;;-2.90;99.90;;;;;;5051023;28;20209;-67
2022/03/17 05:19:51;;;;;;;29.70;15.03;;;-2.90;99.90;;;;;;5054660;28;20566;-66
2022/03/17 05:22:18;;;;;;;29.40;14.40;;;-2.80;99.90;;;;;;5055302;28;20205;-68
2022/03/17 05:24:45;;;;;;;27.50;14.17;;;-2.80;99.90;;;;;;5055188;28;20202;-66
2022/03/17 05:27:12;;;;;;;24.30;12.93;;;-2.80;99.90;;;;;;5054981;28;20224;-68
2022/03/17 05:29:41;;;;;;;23.93;13.33;;;-2.80;99.90;;;;;;5055227;28;20216;-67
2022/03/17 05:32:09;;;;;;;24.23;12.17;;;-2.70;99.90;;;;;;5054886;28;20217;-67
2022/03/17 05:34:36;;;;;;;22.07;12.47;;;-2.70;99.90;;;;;;5055029;28;20209;-66
2022/03/17 05:37:03;;;;;;;19.83;11.60;;;-2.70;99.90;;;;;;5054669;28;20227;-68
2022/03/17 05:39:30;;;;;;;19.77;10.90;;;-2.60;99.90;;;;;;5054757;28;20244;-68
2022/03/17 05:41:57;;;;;;;20.00;10.40;;;-2.60;99.90;;;;;;5054736;28;20246;-66
2022/03/17 05:44:24;;;;;;;17.57;10.10;;;-2.60;99.90;;;;;;5054712;28;20213;-68
2022/03/17 05:46:53;;;;;;;16.40;9.90;;;-2.50;99.90;;;;;;5054651;28;20221;-67
2022/03/17 05:49:20;;;;;;;17.83;9.90;;;-2.50;99.90;;;;;;5054518;28;20212;-66
2022/03/17 05:51:47;;;;;;;18.27;9.83;;;-2.50;99.90;;;;;;5054618;28;20205;-67
2022/03/17 05:54:14;;;;;;;15.80;9.80;;;-2.50;99.90;;;;;;5054548;28;20213;-66
2022/03/17 05:56:41;;;;;;;17.40;9.27;;;-2.50;99.90;;;;;;5054571;28;20201;-67
2022/03/17 05:59:08;;;;;;;18.30;9.80;;;-2.40;99.90;;;;;;5054362;28;20205;-67
2022/03/17 06:01:35;;;;;;;17.60;10.07;;;-2.50;99.90;;;;;;5054237;28;20201;-66
2022/03/17 06:04:04;;;;;;;15.17;9.80;;;-2.50;99.90;;;;;;5054579;28;20217;-67
2022/03/17 06:06:31;;;;;;;16.63;9.57;;;-2.40;99.90;;;;;;5054356;28;20221;-67
2022/03/17 06:08:58;;;;;;;15.60;9.67;;;-2.30;99.90;;;;;;5054125;28;20690;-68
2022/03/17 06:11:26;;;;;;;16.93;9.00;;;-2.30;99.90;;;;;;5054265;28;20194;-68
2022/03/17 06:13:53;;;;;;;16.23;9.60;;;-2.20;99.90;;;;;;5053954;28;20252;-66
2022/03/17 06:16:20;;;;;;;18.20;9.47;;;-2.20;99.90;;;;;;5054252;28;20204;-67
2022/03/17 06:18:48;;;;;;;16.03;9.97;;;-2.20;99.90;;;;;;5054403;28;20205;-66
2022/03/17 06:21:16;;;;;;;14.53;9.17;;;-2.20;99.90;;;;;;5053747;28;20230;-67
2022/03/17 06:23:44;;;;;;;17.97;9.80;;;-2.20;99.90;;;;;;5054006;28;20194;-67
2022/03/17 06:26:11;;;;;;;17.80;9.93;;;-2.20;99.90;;;;;;5053758;28;20213;-67
2022/03/17 06:28:38;;;;;;;17.60;10.07;;;-2.10;99.90;;;;;;5053997;28;20212;-67
2022/03/17 06:31:05;;;;;;;18.93;10.40;;;-2.10;99.90;;;;;;5052810;28;20210;-67
2022/03/17 06:33:32;;;;;;;16.20;9.67;;;-2.10;99.90;;;;;;5053883;28;20205;-67
2022/03/17 06:35:59;;;;;;;14.83;9.07;;;-1.90;99.90;;;;;;5053804;28;20201;-67
2022/03/17 06:38:28;;;;;;;15.20;8.50;;;-1.90;99.90;;;;;;5053601;28;20236;-68
2022/03/17 06:40:55;;;;;;;17.13;9.40;;;-1.80;99.90;;;;;;5054140;28;20497;-67
2022/03/17 06:43:23;;;;;;;15.07;8.77;;;-1.80;99.90;;;;;;5053754;28;20213;-67
2022/03/17 06:45:50;;;;;;;16.63;8.87;;;-1.70;99.90;;;;;;5053509;28;20205;-67
2022/03/17 06:48:17;;;;;;;17.23;8.83;;;-1.60;99.90;;;;;;5053677;28;20226;-67
2022/03/17 06:50:44;;;;;;;13.50;7.40;;;-1.60;99.90;;;;;;5053591;28;20612;-67
2022/03/17 06:53:11;;;;;;;16.67;7.80;;;-1.60;99.90;;;;;;5053575;28;20212;-67
2022/03/17 06:55:40;;;;;;;11.23;7.27;;;-1.60;99.90;;;;;;5053675;28;20209;-68
2022/03/17 06:58:07;;;;;;;15.47;8.03;;;-1.60;99.90;;;;;;5053254;28;20212;-67
2022/03/17 07:00:34;;;;;;;12.70;6.27;;;-1.50;99.90;;;;;;5053447;28;20209;-68
2022/03/17 07:03:01;;;;;;;10.47;6.50;;;-1.50;99.90;;;;;;5053185;28;20214;-67
2022/03/17 07:05:29;;;;;;;9.57;6.13;;;-1.50;99.90;;;;;;5053518;28;20235;-67
2022/03/17 07:07:56;;;;;;;10.70;6.23;;;-1.50;99.90;;;;;;5052997;28;20283;-68
2022/03/17 07:10:23;;;;;;;11.07;6.50;;;-1.50;99.80;;;;;;5053752;28;20698;-67
2022/03/17 07:12:51;;;;;;;10.57;6.10;;;-1.40;99.50;;;;;;5053224;28;20224;-69
2022/03/17 07:15:19;;;;;;;11.77;6.50;;;-1.40;98.90;;;;;;5053138;28;20215;-68
2022/03/17 07:17:46;;;;;;;11.37;6.27;;;-1.30;99.50;;;;;;5053478;28;20236;-67
2022/03/17 07:20:14;;;;;;;9.10;6.13;;;-1.30;98.60;;;;;;5053116;28;20699;-68
2022/03/17 07:22:42;;;;;;;10.00;5.90;;;-1.30;98.80;;;;;;5052812;28;20232;-67
2022/03/17 07:25:11;;;;;;;8.53;5.30;;;-1.20;98.40;;;;;;5053089;28;20655;-67
2022/03/17 07:27:40;;;;;;;10.87;5.57;;;-1.20;98.30;;;;;;5052848;28;20225;-66
2022/03/17 07:30:11;;;;;;;8.97;5.33;;;-1.20;98.40;;;;;;5052980;28;20568;-67
2022/03/17 07:32:38;;;;;;;9.17;5.50;;;-1.20;98.50;;;;;;5052972;28;20201;-66
2022/03/17 07:35:06;;;;;;;9.13;5.77;;;-1.20;98.00;;;;;;5052898;28;20201;-67
2022/03/17 07:37:33;;;;;;;10.60;5.80;;;-1.10;97.90;;;;;;5053022;28;20202;-67
2022/03/17 07:40:02;;;;;;;11.70;6.10;;;-1.10;97.80;;;;;;5052361;28;20244;-67
2022/03/17 07:42:29;;;;;;;10.60;6.13;;;-1.10;97.40;;;;;;5052529;28;20201;-67
2022/03/17 07:44:56;;;;;;;8.50;5.47;;;-1.10;97.70;;;;;;5052706;28;20211;-66
2022/03/17 07:47:25;;;;;;;11.03;6.27;;;-1.10;97.70;;;;;;5052605;28;20589;-67
2022/03/17 07:49:52;;;;;;;10.77;5.50;;;-1.10;97.80;;;;;;5052319;28;20210;-66
2022/03/17 07:52:20;;;;;;;12.63;5.40;;;-1.10;97.40;;;;;;5052840;28;20263;-67
2022/03/17 07:54:47;;;;;;;8.40;5.40;;;-1.10;98.00;;;;;;5052834;28;20512;-67
2022/03/17 07:57:15;;;;;;;7.37;5.20;;;-1.10;97.90;;;;;;5052674;28;20267;-70
2022/03/17 07:59:42;;;;;;;8.43;5.20;;;-1.00;97.40;;;;;;5052129;28;20214;-66
2022/03/17 08:02:09;;;;;;;10.20;5.53;;;-1.00;97.10;;;;;;5052378;28;20217;-67
2022/03/17 08:04:38;;;;;;;7.13;4.80;;;-1.00;96.80;;;;;;5052520;28;20213;-67
2022/03/17 08:07:06;;;;;;;8.77;5.00;;;-0.90;96.60;;;;;;5052131;28;20232;-66
2022/03/17 08:09:33;;;;;;;9.93;5.40;;;-0.90;96.20;;;;;;5052382;28;20578;-69
2022/03/17 08:12:00;;;;;;;8.67;5.20;;;-0.80;95.60;;;;;;5051866;28;20217;-67
2022/03/17 08:14:27;;;;;;;9.23;5.17;;;-0.80;95.70;;;;;;5052004;28;20209;-67
2022/03/17 08:16:55;;;;;;;5.87;4.13;;;-0.70;95.80;;;;;;5051765;28;20217;-68
2022/03/17 08:19:22;;;;;;;8.17;4.60;;;-0.60;95.90;;;;;;5051774;28;20209;-67
2022/03/17 08:21:50;;;;;;;10.20;4.70;;;-0.50;95.40;;;;;;5051854;28;20660;-66
2022/03/17 08:24:17;;;;;;;6.07;4.20;;;-0.50;95.20;;;;;;5051882;28;20209;-67
2022/03/17 08:26:45;;;;;;;8.93;4.33;;;-0.60;94.00;;;;;;5051914;28;20209;-68
2022/03/17 08:29:12;;;;;;;7.13;4.53;;;-0.60;93.90;;;;;;5051732;28;20232;-67
2022/03/17 08:31:39;;;;;;;7.97;4.17;;;-0.60;94.20;;;;;;5052043;28;20577;-67
2022/03/17 08:34:06;;;;;;;8.07;3.97;;;-0.60;93.50;;;;;;5051749;28;20205;-67
2022/03/17 08:36:33;;;;;;;7.73;4.20;;;-0.60;93.50;;;;;;5051650;28;20216;-68
2022/03/17 08:39:01;;;;;;;8.30;4.03;;;-0.50;93.40;;;;;;5051339;28;20233;-68
2022/03/17 08:41:29;;;;;;;7.90;4.40;;;-0.50;93.30;;;;;;5051499;28;20205;-66
2022/03/17 08:43:56;;;;;;;10.77;4.03;;;-0.50;93.50;;;;;;5051299;28;20205;-67
2022/03/17 08:49:19;;;;;;;9.10;4.83;;;-0.50;94.10;;;;;;5051507;28;20221;-68
2022/03/17 08:51:47;;;;;;;7.47;4.30;;;-0.60;94.00;;;;;;5051625;28;20221;-67
2022/03/17 08:54:16;;;;;;;7.23;4.50;;;-0.60;94.00;;;;;;5051154;28;20201;-67
2022/03/17 08:56:43;;;;;;;10.87;4.43;;;-0.50;93.80;;;;;;5051205;28;20215;-67
2022/03/17 08:59:11;;;;;;;7.63;4.80;;;-0.50;93.80;;;;;;5051600;28;20575;-67
2022/03/17 09:01:38;;;;;;;11.20;4.23;;;-0.50;94.10;;;;;;5051182;28;20209;-68
2022/03/17 09:04:05;;;;;;;8.73;4.70;;;-0.50;93.60;;;;;;5051639;28;20209;-67
2022/03/17 09:06:35;;;;;;;9.00;4.30;;;-0.50;93.60;;;;;;5051474;28;20691;-68
2022/03/17 09:09:02;;;;;;;8.20;5.03;;;-0.50;93.50;;;;;;5051815;28;20233;-66
2022/03/17 09:11:32;;;;;;;8.13;4.50;;;-0.50;93.90;;;;;;5051338;28;20212;-66
2022/03/17 09:13:59;;;;;;;7.10;4.37;;;-0.40;93.80;;;;;;5051104;28;20470;-67
2022/03/17 09:16:26;;;;;;;6.70;4.30;;;-0.40;94.50;;;;;;5051225;28;20208;-67
2022/03/17 09:18:53;;;;;;;7.63;4.43;;;-0.30;93.80;;;;;;5051065;28;20201;-67
2022/03/17 09:21:20;;;;;;;8.37;4.70;;;-0.20;93.30;;;;;;5051309;28;20225;-67
2022/03/17 09:23:48;;;;;;;7.77;4.33;;;-0.10;93.30;;;;;;5051228;28;20201;-66
2022/03/17 09:26:16;;;;;;;6.80;4.70;;;-0.10;92.90;;;;;;5051136;28;20671;-68
2022/03/17 09:28:45;;;;;;;7.47;4.60;;;-0.10;93.50;;;;;;5050855;28;20253;-66
2022/03/17 09:31:12;;;;;;;6.63;4.50;;;0.10;93.00;;;;;;5051146;28;20205;-67
2022/03/17 09:33:39;;;;;;;9.53;5.07;;;0.10;93.10;;;;;;5051166;28;20288;-69
2022/03/17 09:36:07;;;;;;;7.40;4.77;;;0.10;93.30;;;;;;5050932;28;20224;-68
2022/03/17 09:38:34;;;;;;;6.73;4.63;;;0.20;92.90;;;;;;5050761;28;20240;-66
2022/03/17 09:41:01;;;;;;;8.00;4.87;;;0.30;93.30;;;;;;5050869;28;20221;-68
2022/03/17 09:43:31;;;;;;;7.00;4.80;;;0.20;93.20;;;;;;5051460;28;20208;-66
2022/03/17 09:46:01;;;;;;;10.07;4.53;;;0.30;92.60;;;;;;5051337;28;20217;-67
2022/03/17 09:48:29;;;;;;;8.40;4.60;;;0.30;92.10;;;;;;5050842;28;20265;-68
2022/03/17 09:50:59;;;;;;;7.07;4.97;;;0.30;93.20;;;;;;5050804;28;20213;-68
2022/03/17 09:53:27;;;;;;;10.57;4.90;;;0.40;93.60;;;;;;5050768;28;20205;-67
2022/03/17 09:55:55;;;;;;;9.50;4.93;;;0.50;93.20;;;;;;5050918;28;20201;-66
2022/03/17 09:58:22;;;;;;;10.00;5.00;;;0.50;93.00;;;;;;5050899;28;20204;-66
2022/03/17 10:00:49;;;;;;;8.17;4.77;;;0.50;92.50;;;;;;5050754;28;20374;-68
2022/03/17 10:03:19;;;;;;;8.87;4.50;;;0.50;92.60;;;;;;5050747;28;20205;-68
2022/03/17 10:05:47;;;;;;;8.33;4.73;;;0.60;92.40;;;;;;5052201;28;20591;-67
2022/03/17 10:08:15;;;;;;;8.23;5.20;;;0.50;92.80;;;;;;5054523;28;20229;-67
2022/03/17 10:10:43;;;;;;;8.57;4.93;;;0.60;92.40;;;;;;5054394;28;20562;-67
2022/03/17 10:13:17;;;;;;;8.50;5.23;;;0.70;93.20;;;;;;5054479;28;20519;-68
2022/03/17 10:15:46;;;;;;;10.90;5.27;;;0.70;92.90;;;;;;5054425;28;20193;-67
2022/03/17 10:18:23;;;;;;;8.83;5.07;;;0.80;92.40;;;;;;5054132;28;20291;-67
2022/03/17 10:21:07;;;;;;;8.27;4.90;;;0.80;92.00;;;;;;5054181;28;20221;-68
2022/03/17 10:23:35;;;;;;;7.40;5.20;;;0.90;92.00;;;;;;5053999;28;20236;-68
2022/03/17 10:26:02;;;;;;;12.97;5.10;;;0.90;91.70;;;;;;5054016;28;20260;-67
2022/03/17 10:28:30;;;;;;;8.17;4.90;;;0.90;92.20;;;;;;5054037;28;20709;-68
2022/03/17 10:31:04;;;;;;;7.00;4.87;;;0.80;92.00;;;;;;5054315;28;20205;-66
2022/03/17 10:33:34;;;;;;;7.50;4.47;;;0.90;92.40;;;;;;5053704;28;20201;-67
2022/03/17 10:36:20;;;;;;;10.07;5.03;;;0.90;91.50;;;;;;5054210;28;20570;-67
2022/03/17 10:38:49;;;;;;;8.57;4.60;;;0.90;92.30;;;;;;5053751;28;20316;-66
2022/03/17 10:41:17;;;;;;;9.40;4.93;;;1.00;91.30;;;;;;5053768;28;20205;-67
2022/03/17 10:43:45;;;;;;;9.53;5.00;;;1.00;92.00;;;;;;5053633;28;20228;-67
2022/03/17 10:46:15;;;;;;;9.97;5.20;;;1.10;91.60;;;;;;5053965;28;20209;-66
2022/03/17 10:48:57;;;;;;;8.77;4.77;;;1.20;92.30;;;;;;5053523;28;20221;-67
2022/03/17 10:51:32;;;;;;;8.80;5.40;;;1.30;91.10;;;;;;5053545;28;20213;-66
2022/03/17 10:54:07;;;;;;;9.00;4.83;;;1.20;90.80;;;;;;5053549;28;20267;-66
2022/03/17 10:56:36;;;;;;;9.40;5.07;;;1.20;90.60;;;;;;5053300;28;20194;-66
2022/03/17 10:59:05;;;;;;;9.07;5.33;;;1.20;90.50;;;;;;5053385;28;20201;-67
2022/03/17 11:01:45;;;;;;;7.47;4.57;;;1.20;90.60;;;;;;5053479;28;20209;-67
2022/03/17 11:04:14;;;;;;;6.43;4.53;;;1.20;90.60;;;;;;5053381;28;20280;-67
2022/03/17 11:06:41;;;;;;;7.17;4.30;;;1.30;90.30;;;;;;5053514;28;20656;-67
2022/03/17 11:09:09;;;;;;;8.50;4.67;;;1.30;90.20;;;;;;5053374;28;20248;-67
2022/03/17 11:11:37;;;;;;;7.70;4.77;;;1.30;90.50;;;;;;5053325;28;20214;-68
2022/03/17 11:14:05;;;;;;;7.90;5.10;;;1.20;90.20;;;;;;5053570;28;20703;-67
2022/03/17 11:16:37;;;;;;;8.00;5.10;;;1.20;90.50;;;;;;5052854;28;20571;-66
2022/03/17 11:19:07;;;;;;;9.13;5.20;;;1.10;91.30;;;;;;5053200;28;20275;-68
2022/03/17 11:21:35;;;;;;;10.60;5.13;;;1.10;92.10;;;;;;5052894;28;20213;-69
2022/03/17 11:24:05;;;;;;;7.67;4.93;;;1.10;92.00;;;;;;5052873;28;20236;-68
2022/03/17 11:26:36;;;;;;;8.23;4.77;;;1.20;91.90;;;;;;5052812;28;20201;-67
2022/03/17 11:29:08;;;;;;;9.33;4.70;;;1.30;92.10;;;;;;5053142;28;20217;-69
2022/03/17 11:31:58;;;;;;;7.20;4.80;;;1.30;90.80;;;;;;5052863;28;20186;-68
2022/03/17 11:34:48;;;;;;;8.70;4.73;;;1.40;90.50;;;;;;5052983;28;20197;-68
2022/03/17 11:37:34;;;;;;;8.73;4.63;;;1.40;90.40;;;;;;5052833;28;20194;-69
2022/03/17 11:40:08;;;;;;;11.60;5.20;;;1.40;90.00;;;;;;5052677;28;20244;-68
2022/03/17 11:42:38;;;;;;;8.03;4.80;;;1.30;89.50;;;;;;5052581;28;20203;-68
2022/03/17 11:45:40;;;;;;;10.63;5.13;;;1.30;89.90;;;;;;5052574;28;20206;-68
2022/03/17 11:48:14;;;;;;;9.40;5.33;;;1.30;90.70;;;;;;5048559;28;20558;-69
2022/03/17 11:50:51;;;;;;;8.17;4.60;;;1.30;90.80;;;;;;5052533;28;20209;-68
2022/03/17 11:53:38;;;;;;;7.47;4.33;;;1.40;90.80;;;;;;5052592;28;20290;-68
2022/03/17 11:56:07;;;;;;;11.00;5.10;;;1.50;90.90;;;;;;5052374;28;20190;-69
2022/03/17 11:58:43;;;;;;;9.40;4.83;;;1.60;90.70;;;;;;5052476;28;20571;-68
2022/03/17 12:01:15;;;;;;;7.40;4.60;;;1.60;89.80;;;;;;5052261;28;20270;-68
2022/03/17 12:03:46;;;;;;;6.17;4.10;;;1.60;88.70;;;;;;5052314;28;20193;-68
2022/03/17 12:06:18;;;;;;;7.43;4.87;;;1.70;89.70;;;;;;5052407;28;20213;-68
2022/03/17 12:09:00;;;;;;;6.57;4.50;;;1.70;89.70;;;;;;5052376;28;20220;-68
2022/03/17 12:11:29;;;;;;;7.50;4.73;;;1.70;89.20;;;;;;5052326;28;20189;-69
2022/03/17 12:14:18;;;;;;;7.60;4.73;;;1.60;89.30;;;;;;5052018;28;20212;-69
2022/03/17 12:16:47;;;;;;;7.73;4.47;;;1.60;88.80;;;;;;5052097;28;20196;-69
2022/03/17 12:19:35;;;;;;;8.47;4.50;;;1.70;88.90;;;;;;5052219;28;20221;-68
2022/03/17 12:22:26;;;;;;;8.37;4.57;;;1.70;89.60;;;;;;5052223;28;20212;-68
2022/03/17 12:24:59;;;;;;;8.17;4.37;;;1.70;89.60;;;;;;5052242;28;20669;-69
2022/03/17 12:27:30;;;;;;;8.73;4.53;;;1.70;88.20;;;;;;5051714;28;20198;-68
2022/03/17 12:30:00;;;;;;;8.07;4.60;;;1.70;87.40;;;;;;5051423;28;20214;-69
2022/03/17 12:32:28;;;;;;;8.10;4.60;;;1.60;88.80;;;;;;5051661;28;20205;-68
2022/03/17 12:34:57;;;;;;;7.33;4.60;;;1.50;88.70;;;;;;5052184;28;20213;-68
2022/03/17 12:37:27;;;;;;;8.70;4.97;;;1.60;89.40;;;;;;5051904;28;20578;-69
2022/03/17 12:39:57;;;;;;;10.87;4.90;;;1.60;89.10;;;;;;5051616;28;20233;-69
2022/03/17 12:42:25;;;;;;;6.67;4.57;;;1.70;88.70;;;;;;5051598;28;20197;-69
2022/03/17 12:44:56;;;;;;;6.83;4.50;;;1.70;88.10;;;;;;5051940;28;20213;-69
2022/03/17 12:47:25;;;;;;;7.93;4.30;;;1.70;88.10;;;;;;5051626;28;20201;-69
2022/03/17 12:49:53;;;;;;;7.23;4.63;;;1.70;89.00;;;;;;5051722;28;20687;-69
2022/03/17 12:52:22;;;;;;;8.97;4.60;;;1.80;88.70;;;;;;5051793;28;20564;-69
2022/03/17 12:54:53;;;;;;;6.37;4.40;;;1.90;88.70;;;;;;5051978;28;20454;-69
2022/03/17 12:57:24;;;;;;;8.60;5.17;;;1.90;86.70;;;;;;5051400;28;20367;-68
2022/03/17 12:59:51;;;;;;;6.37;4.40;;;1.90;88.10;;;;;;5051540;28;20193;-68
2022/03/17 13:02:20;;;;;;;7.60;4.63;;;1.90;88.00;;;;;;5051327;28;20231;-69
2022/03/17 13:04:50;;;;;;;8.33;4.90;;;1.90;88.90;;;;;;5051478;28;20233;-68